createdAt,value
2022-07-27T00:01:07.707Z,100.00
2022-07-27T00:03:35.719Z,100.00
2022-07-27T00:06:03.738Z,100.00
2022-07-27T00:08:31.664Z,100.00
2022-07-27T00:10:59.421Z,100.00
2022-07-27T00:13:28.384Z,100.00
2022-07-27T00:15:59.681Z,100.00
2022-07-27T00:18:28.191Z,100.00
2022-07-27T00:20:56.461Z,100.00
2022-07-27T00:23:24.054Z,100.00
2022-07-27T00:25:52.124Z,100.00
2022-07-27T00:28:20.024Z,100.00
2022-07-27T00:30:47.691Z,100.00
2022-07-27T00:33:17.654Z,100.00
2022-07-27T00:35:46.124Z,100.00
2022-07-27T00:38:14.121Z,100.00
2022-07-27T00:40:42.804Z,100.00
2022-07-27T00:43:10.729Z,100.00
2022-07-27T00:46:40.618Z,100.00
2022-07-27T00:49:11.211Z,100.00
2022-07-27T00:51:40.375Z,100.00
2022-07-27T00:54:08.366Z,100.00
2022-07-27T00:56:38.034Z,100.00
2022-07-27T00:59:07.818Z,100.00
2022-07-27T01:01:40.850Z,100.00
2022-07-27T01:04:10.848Z,100.00
2022-07-27T01:06:39.968Z,100.00
2022-07-27T01:09:27.516Z,100.00
2022-07-27T01:11:58.279Z,100.00
2022-07-27T01:14:28.689Z,100.00
2022-07-27T01:16:57.557Z,100.00
2022-07-27T01:19:26.864Z,100.00
2022-07-27T01:21:56.165Z,100.00
2022-07-27T01:24:23.948Z,100.00
2022-07-27T01:26:53.156Z,100.00
2022-07-27T01:29:22.988Z,100.00
2022-07-27T01:31:52.545Z,100.00
2022-07-27T01:34:20.380Z,100.00
2022-07-27T01:36:48.042Z,100.00
2022-07-27T01:42:59.298Z,100.00
2022-07-27T01:45:27.315Z,100.00
2022-07-27T01:47:56.372Z,100.00
2022-07-27T01:50:24.541Z,100.00
2022-07-27T01:52:53.054Z,100.00
2022-07-27T01:55:20.934Z,100.00
2022-07-27T01:57:49.748Z,100.00
2022-07-27T02:00:19.444Z,100.00
2022-07-27T02:02:47.367Z,100.00
2022-07-27T02:05:16.201Z,100.00
2022-07-27T02:07:44.321Z,100.00
2022-07-27T02:11:17.192Z,100.00
2022-07-27T02:13:47.435Z,100.00
2022-07-27T02:16:16.913Z,100.00
2022-07-27T02:18:48.578Z,100.00
2022-07-27T02:21:17.709Z,100.00
2022-07-27T02:23:47.179Z,100.00
2022-07-27T02:26:15.151Z,100.00
2022-07-27T02:28:43.705Z,100.00
2022-07-27T02:31:12.390Z,100.00
2022-07-27T02:33:41.611Z,100.00
2022-07-27T02:36:09.895Z,100.00
2022-07-27T02:38:38.702Z,100.00
2022-07-27T02:41:06.606Z,100.00
2022-07-27T02:43:35.095Z,100.00
2022-07-27T02:46:02.825Z,100.00
2022-07-27T02:48:30.730Z,100.00
2022-07-27T02:51:02.923Z,100.00
2022-07-27T02:53:31.783Z,100.00
2022-07-27T02:56:00.549Z,100.00
2022-07-27T02:58:28.506Z,100.00
2022-07-27T03:00:58.766Z,100.00
2022-07-27T03:03:33.779Z,100.00
2022-07-27T03:06:06.316Z,100.00
2022-07-27T03:08:34.242Z,100.00
2022-07-27T03:11:03.074Z,100.00
2022-07-27T03:13:31.021Z,100.00
2022-07-27T03:15:59.261Z,100.00
2022-07-27T03:18:28.165Z,100.00
2022-07-27T03:20:56.374Z,100.00
2022-07-27T03:23:28.516Z,100.00
2022-07-27T03:25:57.058Z,100.00
2022-07-27T03:28:25.432Z,100.00
2022-07-27T03:30:54.319Z,100.00
2022-07-27T03:33:22.242Z,100.00
2022-07-27T03:35:49.977Z,100.00
2022-07-27T03:38:18.664Z,100.00
2022-07-27T03:40:48.633Z,100.00
2022-07-27T03:43:17.984Z,100.00
2022-07-27T03:45:46.160Z,100.00
2022-07-27T03:48:14.912Z,100.00
2022-07-27T03:50:43.745Z,100.00
2022-07-27T03:53:12.015Z,100.00
2022-07-27T03:55:39.761Z,100.00
2022-07-27T03:58:08.969Z,100.00
2022-07-27T04:00:38.563Z,100.00
2022-07-27T04:03:06.460Z,100.00
2022-07-27T04:05:34.303Z,100.00
2022-07-27T04:08:03.037Z,100.00
2022-07-27T04:10:31.739Z,100.00
2022-07-27T04:13:01.110Z,100.00
2022-07-27T04:15:31.666Z,100.00
2022-07-27T04:18:01.588Z,100.00
2022-07-27T04:20:30.132Z,100.00
2022-07-27T04:22:57.988Z,100.00
2022-07-27T04:25:26.082Z,100.00
2022-07-27T04:27:55.315Z,100.00
2022-07-27T04:30:24.002Z,100.00
2022-07-27T04:32:55.262Z,100.00
2022-07-27T04:35:26.602Z,100.00
2022-07-27T04:37:58.461Z,100.00
2022-07-27T04:40:33.094Z,100.00
2022-07-27T04:43:01.512Z,100.00
2022-07-27T04:45:29.687Z,100.00
2022-07-27T04:47:59.686Z,100.00
2022-07-27T04:50:27.401Z,100.00
2022-07-27T04:52:55.922Z,100.00
2022-07-27T04:55:23.888Z,100.00
2022-07-27T04:57:51.798Z,100.00
2022-07-27T05:00:19.945Z,100.00
2022-07-27T05:02:48.280Z,100.00
2022-07-27T05:05:17.528Z,100.00
2022-07-27T05:07:45.604Z,100.00
2022-07-27T05:10:17.959Z,100.00
2022-07-27T05:12:47.755Z,100.00
2022-07-27T05:15:15.737Z,100.00
2022-07-27T05:17:43.672Z,100.00
2022-07-27T05:20:12.880Z,100.00
2022-07-27T05:22:44.750Z,100.00
2022-07-27T05:25:13.593Z,100.00
2022-07-27T05:27:54.388Z,100.00
2022-07-27T05:30:24.123Z,100.00
2022-07-27T05:32:52.368Z,100.00
2022-07-27T05:35:20.498Z,100.00
2022-07-27T05:37:49.916Z,100.00
2022-07-27T05:40:17.560Z,100.00
2022-07-27T05:42:46.413Z,100.00
2022-07-27T05:45:14.908Z,100.00
2022-07-27T05:47:42.618Z,100.00
2022-07-27T05:50:12.627Z,99.18
2022-07-27T05:52:40.766Z,97.83
2022-07-27T05:55:11.287Z,97.71
2022-07-27T05:57:41.126Z,96.29
2022-07-27T06:00:10.469Z,96.16
2022-07-27T06:02:38.549Z,95.28
2022-07-27T06:05:10.530Z,94.13
2022-07-27T06:08:06.840Z,94.47
2022-07-27T06:10:37.684Z,93.44
2022-07-27T06:13:06.619Z,93.22
2022-07-27T06:15:34.529Z,91.86
2022-07-27T06:18:03.764Z,90.63
2022-07-27T06:20:32.197Z,92.23
2022-07-27T06:23:08.031Z,91.85
2022-07-27T06:25:37.696Z,90.41
2022-07-27T06:28:06.929Z,92.32
2022-07-27T06:30:35.328Z,92.11
2022-07-27T06:33:06.113Z,90.38
2022-07-27T06:35:34.539Z,91.10
2022-07-27T06:38:06.814Z,91.50
2022-07-27T06:40:34.754Z,91.82
2022-07-27T06:43:04.313Z,90.92
2022-07-27T06:45:32.706Z,89.83
2022-07-27T06:48:01.302Z,88.01
2022-07-27T06:50:29.654Z,88.51
2022-07-27T06:52:57.558Z,89.08
2022-07-27T06:55:25.189Z,89.62
2022-07-27T06:57:52.918Z,88.10
2022-07-27T07:00:22.480Z,88.36
2022-07-27T07:02:55.729Z,88.99
2022-07-27T07:05:24.320Z,85.56
2022-07-27T07:07:53.926Z,87.09
2022-07-27T07:10:23.823Z,85.44
2022-07-27T07:12:55.812Z,84.18
2022-07-27T07:15:26.782Z,84.93
2022-07-27T07:17:56.257Z,83.66
2022-07-27T07:20:24.785Z,85.07
2022-07-27T07:22:54.065Z,84.54
2022-07-27T07:25:22.084Z,82.68
2022-07-27T07:27:50.439Z,81.96
2022-07-27T07:30:19.634Z,81.06
2022-07-27T07:32:48.790Z,81.46
2022-07-27T07:35:17.245Z,79.32
2022-07-27T07:37:45.426Z,78.00
2022-07-27T07:43:08.687Z,78.17
2022-07-27T07:45:47.193Z,75.51
2022-07-27T07:48:21.499Z,74.26
2022-07-27T07:50:52.149Z,75.24
2022-07-27T07:53:21.000Z,75.58
2022-07-27T07:55:48.665Z,72.48
2022-07-27T07:58:19.079Z,68.79
2022-07-27T08:00:47.800Z,71.55
2022-07-27T08:03:16.455Z,71.23
2022-07-27T08:05:45.968Z,72.24
2022-07-27T08:08:14.646Z,72.42
2022-07-27T08:10:42.543Z,73.83
2022-07-27T08:13:10.969Z,73.76
2022-07-27T08:15:38.621Z,70.92
2022-07-27T08:18:07.145Z,71.76
2022-07-27T08:20:35.349Z,75.98
2022-07-27T08:23:05.068Z,71.16
2022-07-27T08:25:33.200Z,67.84
2022-07-27T08:28:02.904Z,68.99
2022-07-27T08:30:33.034Z,68.51
2022-07-27T08:33:02.349Z,65.86
2022-07-27T08:35:32.479Z,64.99
2022-07-27T08:38:01.034Z,65.34
2022-07-27T08:40:46.954Z,63.71
2022-07-27T08:43:23.795Z,62.34
2022-07-27T08:45:56.494Z,62.01
2022-07-27T08:48:25.327Z,64.28
2022-07-27T08:50:54.091Z,64.78
2022-07-27T08:53:23.367Z,66.65
2022-07-27T08:55:52.605Z,65.19
2022-07-27T08:58:20.745Z,63.88
2022-07-27T09:00:50.892Z,64.85
2022-07-27T09:03:21.516Z,65.11
2022-07-27T09:05:51.525Z,65.61
2022-07-27T09:08:24.436Z,62.89
2022-07-27T09:10:56.311Z,61.23
2022-07-27T09:13:27.083Z,59.59
2022-07-27T09:16:17.512Z,59.99
2022-07-27T09:18:44.131Z,56.68
2022-07-27T09:21:14.730Z,58.33
2022-07-27T09:23:43.851Z,59.38
2022-07-27T09:26:31.123Z,59.66
2022-07-27T09:29:02.173Z,63.49
2022-07-27T09:31:31.453Z,63.49
2022-07-27T09:34:02.487Z,63.32
2022-07-27T09:36:31.558Z,65.13
2022-07-27T09:39:03.810Z,64.11
2022-07-27T09:41:45.812Z,63.17
2022-07-27T09:47:02.147Z,62.74
2022-07-27T09:49:31.940Z,63.02
2022-07-27T09:52:02.453Z,62.85
2022-07-27T09:54:43.584Z,62.63
2022-07-27T09:57:13.128Z,61.43
2022-07-27T09:59:40.929Z,61.50
2022-07-27T10:02:09.731Z,61.82
2022-07-27T10:04:38.751Z,60.86
2022-07-27T10:07:12.453Z,58.82
2022-07-27T10:09:41.523Z,58.73
2022-07-27T10:12:10.220Z,58.50
2022-07-27T10:14:39.640Z,58.32
2022-07-27T10:17:07.792Z,60.48
2022-07-27T10:19:41.893Z,56.25
2022-07-27T10:22:09.848Z,54.83
2022-07-27T10:24:37.697Z,55.92
2022-07-27T10:27:22.335Z,55.88
2022-07-27T10:29:52.312Z,55.74
2022-07-27T10:32:27.030Z,62.13
2022-07-27T10:35:07.153Z,57.05
2022-07-27T10:37:36.643Z,58.87
2022-07-27T10:40:25.137Z,59.61
2022-07-27T10:43:07.608Z,56.68
2022-07-27T10:46:00.022Z,59.18
2022-07-27T10:48:40.531Z,55.27
2022-07-27T10:51:16.387Z,54.46
2022-07-27T10:56:50.736Z,52.27
2022-07-27T11:00:08.068Z,53.17
2022-07-27T11:02:43.627Z,60.73
2022-07-27T11:05:42.581Z,59.00
2022-07-27T11:10:50.034Z,55.01
2022-07-27T11:13:19.395Z,54.93
2022-07-27T11:15:55.871Z,56.34
2022-07-27T11:18:31.399Z,54.63
2022-07-27T11:21:15.039Z,56.66
2022-07-27T11:23:51.620Z,54.62
2022-07-27T11:26:20.051Z,56.85
2022-07-27T11:28:48.448Z,57.23
2022-07-27T11:31:27.625Z,58.25
2022-07-27T11:34:06.206Z,56.55
2022-07-27T11:36:44.201Z,57.85
2022-07-27T11:39:28.577Z,56.64
2022-07-27T11:42:08.715Z,56.71
2022-07-27T11:44:42.350Z,57.42
2022-07-27T11:47:10.199Z,59.01
2022-07-27T11:49:39.325Z,59.51
2022-07-27T11:52:10.197Z,57.56
2022-07-27T11:54:39.750Z,59.69
2022-07-27T11:57:08.946Z,59.81
2022-07-27T11:59:38.248Z,56.75
2022-07-27T12:02:07.607Z,56.86
2022-07-27T12:04:37.212Z,56.79
2022-07-27T12:07:10.582Z,56.76
2022-07-27T12:09:41.164Z,56.56
2022-07-27T12:12:15.128Z,54.50
2022-07-27T12:14:46.239Z,53.99
2022-07-27T12:17:18.414Z,56.16
2022-07-27T12:19:57.961Z,55.21
2022-07-27T12:22:34.430Z,62.05
2022-07-27T12:25:15.973Z,60.72
2022-07-27T12:27:55.567Z,57.16
2022-07-27T12:30:31.213Z,56.64
2022-07-27T12:33:01.197Z,54.85
2022-07-27T12:35:36.202Z,55.07
2022-07-27T12:38:10.829Z,59.75
2022-07-27T12:40:46.830Z,58.83
2022-07-27T12:43:17.895Z,57.62
2022-07-27T12:45:47.454Z,57.50
2022-07-27T12:48:17.522Z,57.69
2022-07-27T12:50:47.230Z,57.23
2022-07-27T12:53:17.558Z,58.02
2022-07-27T12:55:46.100Z,56.89
2022-07-27T12:58:14.961Z,59.95
2022-07-27T13:00:43.223Z,57.39
2022-07-27T13:03:11.235Z,56.17
2022-07-27T13:05:39.349Z,52.80
2022-07-27T13:08:08.013Z,54.33
2022-07-27T13:10:37.576Z,53.12
2022-07-27T13:13:06.900Z,51.50
2022-07-27T13:15:35.467Z,46.90
2022-07-27T13:18:03.614Z,45.46
2022-07-27T13:20:33.873Z,44.57
2022-07-27T13:23:02.012Z,44.29
2022-07-27T13:25:30.061Z,44.13
2022-07-27T13:28:00.538Z,45.72
2022-07-27T13:30:28.399Z,45.41
2022-07-27T13:32:57.202Z,45.37
2022-07-27T13:35:24.934Z,48.60
2022-07-27T13:37:53.701Z,50.63
2022-07-27T13:40:21.987Z,52.69
2022-07-27T13:42:50.056Z,50.03
2022-07-27T13:45:19.446Z,50.85
2022-07-27T13:47:47.531Z,53.10
2022-07-27T13:50:19.695Z,50.02
2022-07-27T13:52:48.518Z,50.95
2022-07-27T13:55:16.681Z,52.28
2022-07-27T13:57:45.204Z,50.71
2022-07-27T14:00:14.039Z,52.65
2022-07-27T14:02:43.571Z,50.90
2022-07-27T14:05:15.978Z,50.26
2022-07-27T14:07:46.199Z,46.91
2022-07-27T14:10:32.861Z,50.28
2022-07-27T14:13:07.846Z,50.37
2022-07-27T14:15:50.412Z,42.56
2022-07-27T14:18:24.772Z,39.67
2022-07-27T14:20:53.458Z,41.02
2022-07-27T14:23:22.158Z,41.15
2022-07-27T14:25:52.165Z,39.70
2022-07-27T14:28:22.276Z,38.84
2022-07-27T14:30:51.249Z,43.70
2022-07-27T14:33:19.590Z,45.92
2022-07-27T14:35:48.967Z,47.39
2022-07-27T14:38:30.040Z,48.95
2022-07-27T14:40:59.205Z,44.45
2022-07-27T14:43:27.344Z,46.62
2022-07-27T14:45:55.677Z,45.73
2022-07-27T14:48:37.213Z,47.66
2022-07-27T14:51:12.921Z,47.73
2022-07-27T14:53:41.206Z,46.11
2022-07-27T14:56:09.383Z,44.70
2022-07-27T14:58:37.801Z,47.64
2022-07-27T15:01:06.011Z,47.32
2022-07-27T15:03:34.889Z,46.56
2022-07-27T15:06:03.018Z,44.04
2022-07-27T15:08:35.712Z,46.97
2022-07-27T15:11:04.295Z,43.50
2022-07-27T15:13:32.350Z,45.13
2022-07-27T15:16:00.855Z,44.26
2022-07-27T15:18:34.999Z,42.02
2022-07-27T15:21:12.826Z,41.63
2022-07-27T15:23:44.387Z,46.87
2022-07-27T15:26:13.579Z,45.86
2022-07-27T15:28:42.869Z,45.69
2022-07-27T15:31:11.238Z,41.58
2022-07-27T15:33:39.033Z,41.43
2022-07-27T15:36:07.348Z,41.22
2022-07-27T15:38:36.084Z,38.19
2022-07-27T15:41:05.352Z,37.22
2022-07-27T15:43:34.355Z,39.38
2022-07-27T15:46:02.958Z,38.69
2022-07-27T15:48:31.820Z,35.75
2022-07-27T15:50:59.869Z,34.62
2022-07-27T15:53:30.164Z,38.58
2022-07-27T15:55:58.095Z,46.54
2022-07-27T15:58:27.316Z,49.37
2022-07-27T16:00:57.594Z,49.95
2022-07-27T16:03:26.261Z,54.76
2022-07-27T16:05:55.152Z,53.62
2022-07-27T16:08:23.758Z,54.13
2022-07-27T16:10:51.657Z,55.14
2022-07-27T16:13:20.385Z,54.22
2022-07-27T16:16:08.270Z,54.62
2022-07-27T16:18:38.940Z,49.80
2022-07-27T16:21:07.718Z,52.59
2022-07-27T16:23:36.295Z,54.36
2022-07-27T16:26:06.150Z,52.99
2022-07-27T16:28:35.799Z,52.88
2022-07-27T16:31:05.603Z,53.39
2022-07-27T16:33:34.025Z,52.37
2022-07-27T16:36:02.869Z,55.41
2022-07-27T16:38:30.659Z,50.29
2022-07-27T16:40:58.564Z,47.72
2022-07-27T16:43:37.979Z,42.39
2022-07-27T16:46:10.311Z,40.46
2022-07-27T16:48:42.849Z,38.89
2022-07-27T16:51:13.063Z,37.82
2022-07-27T16:53:42.240Z,39.20
2022-07-27T16:56:11.039Z,40.55
2022-07-27T16:58:39.264Z,39.41
2022-07-27T17:01:09.291Z,40.73
2022-07-27T17:03:37.639Z,41.54
2022-07-27T17:06:07.108Z,38.31
2022-07-27T17:08:35.814Z,37.20
2022-07-27T17:11:05.406Z,41.03
2022-07-27T17:13:35.834Z,41.42
2022-07-27T17:16:04.565Z,41.16
2022-07-27T17:18:40.121Z,41.22
2022-07-27T17:21:12.352Z,40.55
2022-07-27T17:23:41.235Z,40.93
2022-07-27T17:26:10.534Z,40.84
2022-07-27T17:28:40.230Z,42.58
2022-07-27T17:31:10.105Z,47.25
2022-07-27T17:33:41.437Z,47.70
2022-07-27T17:36:15.106Z,48.34
2022-07-27T17:38:44.179Z,48.10
2022-07-27T17:41:12.830Z,45.52
2022-07-27T17:43:40.628Z,51.05
2022-07-27T17:46:09.638Z,52.49
2022-07-27T17:48:40.411Z,54.38
2022-07-27T17:51:10.524Z,54.83
2022-07-27T17:53:39.385Z,51.60
2022-07-27T17:56:08.427Z,51.51
2022-07-27T17:58:37.007Z,55.47
2022-07-27T18:01:06.192Z,57.46
2022-07-27T18:03:34.829Z,55.74
2022-07-27T18:06:04.852Z,58.90
2022-07-27T18:08:32.877Z,55.12
2022-07-27T18:11:01.820Z,59.26
2022-07-27T18:13:39.445Z,56.47
2022-07-27T18:16:09.930Z,58.09
2022-07-27T18:18:38.833Z,59.24
2022-07-27T18:21:09.377Z,60.32
2022-07-27T18:23:37.441Z,61.17
2022-07-27T18:26:05.821Z,62.11
2022-07-27T18:28:39.506Z,61.00
2022-07-27T18:31:09.996Z,62.51
2022-07-27T18:33:40.334Z,62.57
2022-07-27T18:36:11.330Z,64.60
2022-07-27T18:38:40.093Z,66.53
2022-07-27T18:41:08.590Z,65.83
2022-07-27T18:43:36.357Z,65.98
2022-07-27T18:46:04.464Z,68.80
2022-07-27T18:48:33.296Z,66.56
2022-07-27T18:51:02.961Z,65.82
2022-07-27T18:53:32.903Z,66.05
2022-07-27T18:56:02.520Z,68.33
2022-07-27T18:58:31.266Z,67.63
2022-07-27T19:00:59.617Z,68.29
2022-07-27T19:03:27.905Z,71.48
2022-07-27T19:05:56.648Z,67.98
2022-07-27T19:08:25.206Z,69.61
2022-07-27T19:10:54.775Z,70.03
2022-07-27T19:13:22.680Z,70.80
2022-07-27T19:15:51.545Z,69.54
2022-07-27T19:18:19.511Z,73.74
2022-07-27T19:20:47.714Z,73.46
2022-07-27T19:23:15.595Z,72.92
2022-07-27T19:25:45.958Z,72.08
2022-07-27T19:28:19.254Z,75.49
2022-07-27T19:30:47.458Z,75.26
2022-07-27T19:33:15.817Z,76.72
2022-07-27T19:35:43.780Z,72.75
2022-07-27T19:38:13.207Z,74.54
2022-07-27T19:40:44.755Z,79.39
2022-07-27T19:43:13.641Z,76.52
2022-07-27T19:45:47.404Z,76.78
2022-07-27T19:48:15.876Z,76.09
2022-07-27T19:50:44.656Z,76.81
2022-07-27T19:53:14.396Z,73.49
2022-07-27T19:55:43.354Z,75.49
2022-07-27T19:58:11.470Z,76.17
2022-07-27T20:00:39.746Z,76.00
2022-07-27T20:03:08.897Z,74.03
2022-07-27T20:05:38.391Z,76.50
2022-07-27T20:08:06.704Z,78.73
2022-07-27T20:10:35.462Z,80.04
2022-07-27T20:13:05.109Z,77.29
2022-07-27T20:15:34.175Z,75.48
2022-07-27T20:18:04.095Z,75.38
2022-07-27T20:20:34.701Z,76.85
2022-07-27T20:23:02.672Z,78.63
2022-07-27T20:25:30.713Z,78.22
2022-07-27T20:27:58.984Z,77.92
2022-07-27T20:30:27.396Z,76.81
2022-07-27T20:32:55.853Z,75.50
2022-07-27T20:35:24.268Z,76.25
2022-07-27T20:38:09.641Z,76.20
2022-07-27T20:40:37.397Z,76.68
2022-07-27T20:43:05.344Z,75.65
2022-07-27T20:45:33.259Z,76.44
2022-07-27T20:48:00.940Z,76.36
2022-07-27T20:50:29.541Z,79.42
2022-07-27T20:52:58.299Z,81.43
2022-07-27T20:55:27.454Z,82.50
2022-07-27T20:57:55.700Z,81.53
2022-07-27T21:00:28.928Z,83.49
2022-07-27T21:02:57.308Z,84.81
2022-07-27T21:05:27.145Z,84.19
2022-07-27T21:07:56.233Z,86.77
2022-07-27T21:10:24.681Z,89.50
2022-07-27T21:12:56.860Z,89.30
2022-07-27T21:15:33.984Z,85.12
2022-07-27T21:18:03.000Z,87.84
2022-07-27T21:20:30.902Z,88.38
2022-07-27T21:23:16.352Z,87.65
2022-07-27T21:25:44.784Z,87.05
2022-07-27T21:28:16.941Z,88.59
2022-07-27T21:30:46.520Z,89.41
2022-07-27T21:33:15.422Z,88.18
2022-07-27T21:35:43.532Z,89.58
2022-07-27T21:38:11.610Z,89.43
2022-07-27T21:40:39.514Z,91.84
2022-07-27T21:43:09.563Z,89.28
2022-07-27T21:45:38.908Z,90.51
2022-07-27T21:48:15.880Z,90.39
2022-07-27T21:50:45.668Z,89.96
2022-07-27T21:53:13.856Z,89.89
2022-07-27T21:55:41.806Z,89.21
2022-07-27T21:58:12.371Z,93.72
2022-07-27T22:00:41.681Z,92.23
2022-07-27T22:03:10.183Z,90.90
2022-07-27T22:05:38.268Z,94.09
2022-07-27T22:08:06.325Z,91.14
2022-07-27T22:10:35.119Z,92.01
2022-07-27T22:13:06.066Z,92.81
2022-07-27T22:15:35.541Z,94.31
2022-07-27T22:18:04.718Z,95.18
2022-07-27T22:20:32.605Z,93.53
2022-07-27T22:23:01.079Z,93.62
2022-07-27T22:25:29.810Z,94.48
2022-07-27T22:27:58.314Z,94.71
2022-07-27T22:30:27.803Z,95.86
2022-07-27T22:32:56.251Z,93.48
2022-07-27T22:35:25.552Z,96.07
2022-07-27T22:37:53.245Z,95.79
2022-07-27T22:40:23.804Z,96.80
2022-07-27T22:42:52.044Z,97.74
2022-07-27T22:45:19.884Z,100.00
2022-07-27T22:47:47.756Z,100.00
2022-07-27T22:50:18.486Z,99.93
2022-07-27T22:52:52.589Z,97.39
2022-07-27T22:55:20.365Z,99.40
2022-07-27T22:57:51.104Z,100.00
2022-07-27T23:00:19.587Z,99.48
2022-07-27T23:02:47.608Z,100.00
2022-07-27T23:05:15.436Z,97.92
2022-07-27T23:07:44.180Z,97.81
2022-07-27T23:10:30.673Z,97.97
2022-07-27T23:12:59.719Z,98.30
2022-07-27T23:15:28.677Z,99.23
2022-07-27T23:17:56.417Z,100.00
2022-07-27T23:20:24.384Z,99.55
2022-07-27T23:22:54.137Z,98.88
2022-07-27T23:25:24.957Z,100.00
2022-07-27T23:28:04.645Z,100.00
2022-07-27T23:30:33.486Z,100.00
2022-07-27T23:33:01.370Z,100.00
2022-07-27T23:35:30.607Z,100.00
2022-07-27T23:37:58.471Z,100.00
2022-07-27T23:40:31.456Z,100.00
2022-07-27T23:42:59.457Z,100.00
2022-07-27T23:45:27.601Z,100.00
2022-07-27T23:47:55.486Z,100.00
2022-07-27T23:50:23.655Z,100.00
2022-07-27T23:52:51.537Z,100.00
2022-07-27T23:55:19.253Z,100.00
2022-07-27T23:57:48.523Z,100.00
